Time;durP1;ratioP1;P1;durP2;ratioP2;P2;SDS_P1;SDS_P2;PMS_P1;PMS_P2;Temp;Humidity;BMP_temperature;BMP_pressure;BME280_temperature;BME280_humidity;BME280_pressure;Samples;Min_cycle;Max_cycle;Signal;HPM_P1;HPM_P2
2022/06/06 00:02:25;;;;;;;8.25;7.75;;;18.40;66.20;;;;;;5033628;28;20040;-80
2022/06/06 00:04:52;;;;;;;7.90;7.20;;;18.40;66.20;;;;;;5033923;28;20041;-80
2022/06/06 00:07:18;;;;;;;7.60;7.05;;;18.30;66.40;;;;;;5049773;28;20104;-80
2022/06/06 00:09:44;;;;;;;8.07;7.40;;;18.30;66.50;;;;;;5052017;28;20029;-80
2022/06/06 00:12:10;;;;;;;7.68;7.07;;;18.30;67.00;;;;;;5049786;28;20586;-80
2022/06/06 00:14:36;;;;;;;7.88;7.45;;;18.20;67.10;;;;;;5050938;28;20048;-79
2022/06/06 00:17:02;;;;;;;7.90;7.30;;;18.20;67.10;;;;;;5049041;28;20084;-79
2022/06/06 00:19:28;;;;;;;7.43;6.93;;;18.10;67.60;;;;;;5048519;28;20379;-79
2022/06/06 00:21:55;;;;;;;7.50;6.95;;;18.10;67.90;;;;;;5051755;28;20394;-79
2022/06/06 00:24:21;;;;;;;7.07;6.68;;;18.20;67.80;;;;;;5050264;28;20025;-80
2022/06/06 00:26:47;;;;;;;7.72;7.22;;;18.20;67.70;;;;;;5049561;28;20088;-79
2022/06/06 00:29:15;;;;;;;7.55;7.00;;;18.10;67.90;;;;;;5026611;28;20495;-79
2022/06/06 00:37:12;;;;;;;8.07;6.78;;;18.10;68.30;;;;;;5054225;28;20136;-80
2022/06/06 00:39:39;;;;;;;7.90;7.20;;;18.00;69.20;;;;;;5051150;28;20383;-79
2022/06/06 00:42:12;;;;;;;7.82;7.22;;;17.90;69.60;;;;;;5043451;28;20029;-79
2022/06/06 00:44:39;;;;;;;8.38;7.68;;;17.80;69.80;;;;;;5043398;28;20487;-80
2022/06/06 00:47:18;;;;;;;8.20;7.40;;;17.90;69.60;;;;;;5042687;28;20040;-79
2022/06/06 00:49:59;;;;;;;7.90;7.35;;;17.90;70.10;;;;;;5033231;28;20495;-79
2022/06/06 00:52:28;;;;;;;7.80;7.20;;;17.80;70.40;;;;;;5033894;28;20033;-80
2022/06/06 00:54:56;;;;;;;8.18;7.47;;;17.80;70.50;;;;;;5050159;28;20036;-79
2022/06/06 00:57:25;;;;;;;8.30;7.80;;;17.70;70.60;;;;;;5048803;28;20024;-79
2022/06/06 00:59:52;;;;;;;8.25;7.55;;;17.70;70.60;;;;;;5043214;28;20056;-79
2022/06/06 01:02:18;;;;;;;8.25;7.55;;;17.70;70.60;;;;;;5042416;28;20037;-79
2022/06/06 01:04:44;;;;;;;8.40;7.70;;;17.80;70.60;;;;;;5033586;28;20128;-79
2022/06/06 01:07:10;;;;;;;7.90;7.22;;;17.80;70.50;;;;;;5047894;28;20029;-79
2022/06/06 01:09:37;;;;;;;8.25;7.65;;;17.90;70.20;;;;;;5049771;28;20029;-79
2022/06/06 01:12:06;;;;;;;8.43;7.80;;;17.90;70.00;;;;;;5033030;28;20415;-80
2022/06/06 01:14:38;;;;;;;7.95;7.55;;;17.80;70.30;;;;;;5048705;28;20535;-79
2022/06/06 01:17:07;;;;;;;8.18;7.63;;;17.80;70.60;;;;;;5028096;28;20033;-79
2022/06/06 01:20:07;;;;;;;8.35;7.43;;;17.80;70.60;;;;;;5047182;28;20025;-79
2022/06/06 01:22:40;;;;;;;8.45;7.85;;;17.80;70.90;;;;;;5034564;28;20399;-79
2022/06/06 01:25:30;;;;;;;8.50;7.70;;;17.70;71.00;;;;;;5048355;28;20041;-80
2022/06/06 01:28:04;;;;;;;8.17;7.57;;;17.80;70.90;;;;;;5046556;28;20052;-80
2022/06/06 01:30:36;;;;;;;8.30;7.60;;;17.80;70.90;;;;;;5032453;28;20282;-79
2022/06/06 01:33:03;;;;;;;7.75;7.35;;;17.80;70.80;;;;;;5042700;28;20048;-80
2022/06/06 01:35:36;;;;;;;8.18;7.57;;;17.80;71.40;;;;;;5029051;28;20384;-79
2022/06/06 01:38:03;;;;;;;9.10;7.45;;;17.80;70.90;;;;;;5040134;28;20044;-79
2022/06/06 01:40:55;;;;;;;9.18;8.32;;;17.80;71.00;;;;;;5046924;28;20029;-80
2022/06/06 01:43:25;;;;;;;8.35;7.82;;;17.80;70.90;;;;;;5018711;28;20091;-78
2022/06/06 01:46:03;;;;;;;11.55;8.45;;;17.80;70.90;;;;;;5029680;28;20036;-80
2022/06/06 01:48:34;;;;;;;8.48;7.95;;;17.80;70.90;;;;;;5016618;28;20037;-79
2022/06/06 01:51:12;;;;;;;9.07;8.32;;;17.80;70.70;;;;;;5041942;28;20029;-80
2022/06/06 01:53:39;;;;;;;8.80;8.15;;;17.90;70.70;;;;;;5042567;28;20513;-79
2022/06/06 01:56:06;;;;;;;9.07;8.27;;;17.80;70.60;;;;;;5016320;28;20037;-80
2022/06/06 01:58:33;;;;;;;8.98;8.27;;;17.80;70.50;;;;;;5046963;28;20384;-80
2022/06/06 02:01:01;;;;;;;9.10;8.45;;;17.70;70.80;;;;;;5031572;28;20044;-79
2022/06/06 02:03:27;;;;;;;8.93;8.32;;;17.70;70.80;;;;;;5049615;28;20021;-80
2022/06/06 02:05:53;;;;;;;9.65;8.75;;;17.70;71.00;;;;;;5042028;28;20024;-79
2022/06/06 02:08:19;;;;;;;8.93;8.32;;;17.60;71.20;;;;;;5041884;28;20025;-79
2022/06/06 02:10:45;;;;;;;9.25;8.48;;;17.60;71.20;;;;;;5042444;28;20030;-79
2022/06/06 02:13:12;;;;;;;9.68;8.88;;;17.60;71.50;;;;;;5048903;28;20033;-79
2022/06/06 02:15:38;;;;;;;10.90;8.50;;;17.60;71.30;;;;;;5049292;28;20045;-79
2022/06/06 02:18:04;;;;;;;9.52;8.82;;;17.60;71.30;;;;;;5024828;28;20051;-79
2022/06/06 02:20:31;;;;;;;9.40;8.65;;;17.70;71.00;;;;;;5041033;28;20036;-80
2022/06/06 02:22:57;;;;;;;9.55;8.70;;;17.70;71.10;;;;;;5041068;28;20033;-80
2022/06/06 02:25:23;;;;;;;9.70;8.70;;;17.70;71.10;;;;;;5046228;28;20021;-80
2022/06/06 02:27:50;;;;;;;9.43;8.75;;;17.70;71.10;;;;;;5029123;28;20041;-79
2022/06/06 02:30:21;;;;;;;9.63;9.00;;;17.60;71.60;;;;;;5046580;28;20483;-80
2022/06/06 02:32:47;;;;;;;9.68;8.70;;;17.60;71.50;;;;;;5041835;28;20037;-79
2022/06/06 02:35:19;;;;;;;9.38;8.73;;;17.60;71.30;;;;;;5031739;28;20041;-79
2022/06/06 02:37:46;;;;;;;9.40;8.73;;;17.60;71.10;;;;;;5042032;28;20464;-80
2022/06/06 02:40:13;;;;;;;10.25;9.38;;;17.60;71.20;;;;;;5029937;28;20033;-79
2022/06/06 02:42:39;;;;;;;9.95;8.98;;;17.60;71.20;;;;;;5032174;28;20056;-79
2022/06/06 02:45:07;;;;;;;9.55;8.70;;;17.60;71.60;;;;;;5040895;28;20025;-79
2022/06/06 02:47:33;;;;;;;9.43;8.70;;;17.60;71.50;;;;;;5046580;28;20029;-79
2022/06/06 02:49:59;;;;;;;9.88;8.95;;;17.60;71.60;;;;;;5041384;28;20052;-79
2022/06/06 02:52:25;;;;;;;10.02;9.35;;;17.60;71.50;;;;;;5046831;28;20496;-79
2022/06/06 02:54:52;;;;;;;9.93;9.20;;;17.60;71.60;;;;;;5048582;28;20029;-79
2022/06/06 02:57:19;;;;;;;10.00;9.30;;;17.60;71.40;;;;;;5049175;28;20029;-79
2022/06/06 02:59:45;;;;;;;10.30;9.30;;;17.60;71.40;;;;;;5028115;28;20034;-80
2022/06/06 03:02:11;;;;;;;10.52;9.73;;;17.60;72.20;;;;;;5037956;28;20041;-79
2022/06/06 03:04:40;;;;;;;10.35;9.57;;;17.60;71.80;;;;;;5045913;28;20029;-79
2022/06/06 03:07:29;;;;;;;9.88;9.15;;;17.50;72.00;;;;;;5048581;28;20044;-79
2022/06/06 03:10:14;;;;;;;10.30;9.60;;;17.60;71.60;;;;;;4947717;28;20504;-79
2022/06/06 03:12:43;;;;;;;10.20;9.45;;;17.60;71.80;;;;;;4953142;28;20051;-79
2022/06/06 03:15:20;;;;;;;9.80;9.10;;;17.60;71.90;;;;;;4950533;28;20053;-79
2022/06/06 03:21:03;;;;;;;10.18;9.32;;;17.50;72.30;;;;;;4891227;29;20043;-79
2022/06/06 03:23:46;;;;;;;10.48;9.75;;;17.50;72.00;;;;;;4891988;29;20212;-79
2022/06/06 03:26:18;;;;;;;10.25;9.52;;;17.50;71.90;;;;;;4861899;29;20040;-79
2022/06/06 03:28:51;;;;;;;10.88;9.98;;;17.50;71.90;;;;;;4892543;29;20060;-79
2022/06/06 03:31:41;;;;;;;11.65;10.75;;;17.50;71.90;;;;;;4885810;29;20039;-79
2022/06/06 03:34:44;;;;;;;11.70;10.57;;;17.40;72.10;;;;;;4898535;29;20044;-79
2022/06/06 03:37:17;;;;;;;11.18;10.48;;;17.40;72.00;;;;;;4914752;28;20036;-79
2022/06/06 03:39:49;;;;;;;11.43;10.45;;;17.30;72.00;;;;;;4915350;29;20028;-80
2022/06/06 03:42:44;;;;;;;11.55;10.60;;;17.30;72.00;;;;;;4899226;29;20036;-79
2022/06/06 03:45:35;;;;;;;10.82;9.98;;;17.40;72.40;;;;;;4914226;29;20048;-79
2022/06/06 03:48:12;;;;;;;11.43;10.32;;;17.40;72.20;;;;;;4966611;28;20044;-79
2022/06/06 03:50:54;;;;;;;11.02;10.18;;;17.40;72.30;;;;;;4975044;28;20053;-79
2022/06/06 03:54:14;;;;;;;10.77;9.95;;;17.40;72.20;;;;;;4984342;28;20038;-79
2022/06/06 03:56:55;;;;;;;11.45;10.40;;;17.40;72.30;;;;;;4946453;28;20267;-79
2022/06/06 03:59:21;;;;;;;11.43;10.40;;;17.40;72.20;;;;;;4972227;28;20042;-79
2022/06/06 04:01:47;;;;;;;11.07;10.30;;;17.30;72.30;;;;;;4962264;28;20030;-79
2022/06/06 04:04:14;;;;;;;11.38;10.55;;;17.30;72.30;;;;;;4974871;28;20073;-80
2022/06/06 04:06:40;;;;;;;12.35;11.07;;;17.30;72.50;;;;;;4980009;28;20039;-79
2022/06/06 04:09:06;;;;;;;11.43;10.73;;;17.30;72.50;;;;;;4959822;28;20437;-79
2022/06/06 04:12:04;;;;;;;10.85;10.15;;;17.20;72.40;;;;;;4978879;28;20061;-79
2022/06/06 04:14:40;;;;;;;11.43;10.43;;;17.20;72.80;;;;;;4955655;28;20050;-79
2022/06/06 04:17:21;;;;;;;10.48;9.80;;;17.30;72.50;;;;;;4903757;29;20039;-79
2022/06/06 04:20:01;;;;;;;11.38;10.52;;;17.20;72.30;;;;;;4932903;29;20043;-79
2022/06/06 04:22:37;;;;;;;10.95;10.00;;;17.20;72.80;;;;;;4932975;29;20051;-79
2022/06/06 04:25:31;;;;;;;10.30;9.60;;;17.20;72.90;;;;;;4917788;29;20055;-79
2022/06/06 04:28:12;;;;;;;10.93;10.13;;;17.20;72.60;;;;;;4930985;29;20534;-79
2022/06/06 04:31:09;;;;;;;11.02;10.32;;;17.10;72.30;;;;;;4966134;28;20038;-79
2022/06/06 04:34:11;;;;;;;11.55;10.75;;;17.10;72.60;;;;;;4958430;28;20201;-79
2022/06/06 04:36:54;;;;;;;11.43;10.55;;;17.00;72.40;;;;;;4957817;28;20461;-79
2022/06/06 04:39:39;;;;;;;11.80;10.82;;;17.00;72.80;;;;;;4947971;28;20564;-79
2022/06/06 04:42:08;;;;;;;11.30;10.30;;;17.00;73.00;;;;;;4967705;28;20386;-80
2022/06/06 04:44:52;;;;;;;10.63;9.80;;;17.00;73.00;;;;;;4965062;28;20038;-80
2022/06/06 04:47:38;;;;;;;11.23;10.43;;;17.00;72.90;;;;;;4972164;28;20038;-79
2022/06/06 04:50:09;;;;;;;11.20;10.38;;;17.00;73.10;;;;;;4973663;28;20030;-79
2022/06/06 04:52:36;;;;;;;11.15;10.32;;;16.90;73.30;;;;;;5027951;28;20041;-79
2022/06/06 04:55:04;;;;;;;11.05;10.20;;;16.90;73.50;;;;;;5013685;28;20379;-79
2022/06/06 04:57:31;;;;;;;10.80;10.00;;;17.00;73.10;;;;;;4996986;28;20033;-79
2022/06/06 04:59:57;;;;;;;11.13;10.27;;;17.00;73.40;;;;;;5006580;28;20332;-79
2022/06/06 05:02:23;;;;;;;9.90;9.20;;;17.10;74.00;;;;;;5006364;28;20026;-80
2022/06/06 05:04:49;;;;;;;9.75;8.98;;;17.20;73.90;;;;;;5010648;28;20041;-79
2022/06/06 05:07:15;;;;;;;8.02;7.55;;;17.30;74.70;;;;;;5027957;28;20036;-80
2022/06/06 05:09:55;;;;;;;8.55;7.80;;;17.40;75.00;;;;;;5032153;28;20044;-80
2022/06/06 05:12:36;;;;;;;8.65;7.82;;;17.60;74.90;;;;;;5009382;28;20073;-79
2022/06/06 05:15:34;;;;;;;8.52;7.80;;;17.70;74.80;;;;;;5027935;28;20064;-79
2022/06/06 05:18:39;;;;;;;8.95;7.97;;;18.00;74.10;;;;;;5013444;28;20435;-80
2022/06/06 05:21:25;;;;;;;8.75;8.10;;;18.20;71.70;;;;;;5001170;28;20041;-80
2022/06/06 05:24:07;;;;;;;9.43;8.60;;;18.30;72.30;;;;;;4954374;28;20043;-80
2022/06/06 05:26:48;;;;;;;9.60;8.75;;;18.60;71.30;;;;;;4954587;28;20488;-80
2022/06/06 05:29:20;;;;;;;9.75;8.82;;;18.70;69.10;;;;;;4959668;28;20385;-80
2022/06/06 05:32:05;;;;;;;9.68;8.93;;;18.70;68.90;;;;;;4947992;28;20039;-80
2022/06/06 05:34:33;;;;;;;10.80;9.95;;;18.70;69.50;;;;;;4947984;29;20055;-80
2022/06/06 05:37:06;;;;;;;18.48;17.17;;;18.90;69.10;;;;;;4964502;28;20031;-80
2022/06/06 05:39:42;;;;;;;24.23;22.90;;;19.10;69.30;;;;;;4950012;28;20050;-81
2022/06/06 05:42:33;;;;;;;16.90;15.80;;;19.30;68.20;;;;;;4947422;29;20036;-80
2022/06/06 05:45:46;;;;;;;16.20;15.30;;;19.50;67.20;;;;;;4957045;28;20066;-81
2022/06/06 05:48:31;;;;;;;15.98;14.98;;;19.60;65.90;;;;;;4967758;28;20594;-81
2022/06/06 05:51:32;;;;;;;15.90;14.65;;;19.60;65.50;;;;;;4973041;28;20081;-80
2022/06/06 05:54:25;;;;;;;15.90;15.10;;;19.70;65.40;;;;;;4971412;28;20054;-81
2022/06/06 05:56:59;;;;;;;17.00;15.80;;;19.70;64.90;;;;;;4972232;28;20477;-81
2022/06/06 05:59:34;;;;;;;15.73;14.80;;;19.90;65.30;;;;;;4968820;28;20138;-81
2022/06/06 06:02:14;;;;;;;15.48;14.30;;;20.00;65.10;;;;;;5022432;28;20040;-81
2022/06/06 06:05:02;;;;;;;14.40;13.52;;;20.10;64.30;;;;;;5026752;28;20028;-81
2022/06/06 06:07:43;;;;;;;15.60;14.40;;;20.20;62.40;;;;;;5013878;28;20029;-81
2022/06/06 06:10:16;;;;;;;;;;;20.10;63.20;;;;;;5028134;28;20724;-81
2022/06/06 06:13:10;;;;;;;14.63;13.65;;;20.20;63.20;;;;;;5013087;28;19917;-81
2022/06/06 06:15:38;;;;;;;14.00;13.18;;;20.20;63.20;;;;;;5029806;28;20053;-81
2022/06/06 06:18:16;;;;;;;14.93;13.65;;;20.20;63.10;;;;;;5005912;28;20030;-80
2022/06/06 06:20:49;;;;;;;13.75;12.95;;;20.30;62.70;;;;;;4996565;28;20037;-81
2022/06/06 06:23:19;;;;;;;14.57;13.60;;;20.30;62.30;;;;;;5006130;28;20464;-81
2022/06/06 06:25:45;;;;;;;13.93;13.13;;;20.30;62.30;;;;;;4993450;28;20049;-81
2022/06/06 06:28:12;;;;;;;14.55;13.45;;;20.30;62.10;;;;;;5026575;28;20030;-80
2022/06/06 06:31:03;;;;;;;13.70;12.90;;;20.30;62.20;;;;;;5010535;28;20335;-81
2022/06/06 06:33:33;;;;;;;14.40;13.30;;;20.20;61.70;;;;;;5028032;28;20384;-81
2022/06/06 06:36:21;;;;;;;13.57;12.57;;;20.20;62.40;;;;;;5029131;28;20124;-80
2022/06/06 06:39:21;;;;;;;13.27;12.45;;;20.20;62.60;;;;;;5022055;28;20030;-80
2022/06/06 06:42:05;;;;;;;13.10;12.10;;;20.20;62.20;;;;;;5027390;28;20033;-80
2022/06/06 06:44:39;;;;;;;13.52;12.60;;;20.30;62.30;;;;;;5026947;28;20026;-80
2022/06/06 06:47:08;;;;;;;13.48;12.30;;;20.20;62.50;;;;;;5005379;28;20396;-80
2022/06/06 06:49:53;;;;;;;13.30;12.30;;;20.20;62.20;;;;;;5027303;28;20030;-80
2022/06/06 06:52:38;;;;;;;12.88;12.13;;;20.20;62.00;;;;;;5011811;28;20034;-80
2022/06/06 06:55:27;;;;;;;13.70;12.93;;;20.20;62.60;;;;;;5028845;28;20041;-80
2022/06/06 06:57:56;;;;;;;14.15;13.38;;;20.20;62.20;;;;;;5009831;28;20033;-81
2022/06/06 07:00:22;;;;;;;14.80;13.70;;;20.40;62.40;;;;;;5029177;28;20034;-81
2022/06/06 07:09:36;;;;;;;14.52;13.63;;;21.00;60.20;;;;;;4989111;28;20045;-81
2022/06/06 07:12:17;;;;;;;15.85;14.82;;;21.10;61.40;;;;;;4985133;28;20715;-81
2022/06/06 07:14:49;;;;;;;16.77;15.50;;;21.30;60.20;;;;;;4963354;28;20065;-81
2022/06/06 07:17:15;;;;;;;17.48;16.38;;;21.60;59.40;;;;;;4984336;28;20034;-81
2022/06/06 07:20:06;;;;;;;17.92;16.38;;;21.80;58.70;;;;;;4953818;28;20045;-81
2022/06/06 07:22:59;;;;;;;18.55;17.55;;;22.00;57.70;;;;;;4948592;28;20034;-81
2022/06/06 07:25:23;;;;;;;;;;;22.10;56.70;;;;;;4961173;28;20042;-81
2022/06/06 07:27:49;;;;;;;18.25;17.20;;;22.20;56.20;;;;;;4972433;28;19939;-81
2022/06/06 07:30:16;;;;;;;18.25;16.98;;;21.90;55.80;;;;;;4952673;28;20046;-81
2022/06/06 07:33:26;;;;;;;18.65;17.58;;;21.80;56.60;;;;;;4968322;28;20034;-81
2022/06/06 07:36:16;;;;;;;18.50;17.35;;;21.80;56.20;;;;;;4911048;29;20051;-80
2022/06/06 07:39:00;;;;;;;17.58;16.58;;;21.80;56.10;;;;;;4918901;29;20391;-81
2022/06/06 07:41:58;;;;;;;17.75;16.65;;;21.70;55.80;;;;;;4923466;29;20055;-80
2022/06/06 07:44:43;;;;;;;17.77;16.45;;;21.70;55.80;;;;;;4924268;29;20406;-80
2022/06/06 07:47:41;;;;;;;17.23;16.13;;;21.60;55.70;;;;;;4921594;29;21978;-80
2022/06/06 07:50:13;;;;;;;16.48;15.55;;;21.50;56.00;;;;;;4918560;29;20043;-80
2022/06/06 07:52:50;;;;;;;16.85;15.85;;;21.50;56.20;;;;;;4916866;29;20047;-80
2022/06/06 07:55:48;;;;;;;16.15;15.00;;;21.50;56.00;;;;;;4883492;29;20055;-81
2022/06/06 07:58:19;;;;;;;15.93;14.98;;;21.40;56.30;;;;;;4928050;29;20048;-81
2022/06/06 08:00:47;;;;;;;16.25;15.30;;;21.40;56.40;;;;;;4894519;29;20383;-80
2022/06/06 08:03:29;;;;;;;16.83;15.65;;;21.40;56.30;;;;;;4900575;29;20048;-81
2022/06/06 08:06:10;;;;;;;16.73;15.68;;;21.30;56.20;;;;;;4924265;29;20066;-81
2022/06/06 08:09:02;;;;;;;16.42;15.43;;;21.40;55.70;;;;;;4935960;29;20414;-80
2022/06/06 08:11:49;;;;;;;16.33;15.30;;;21.30;55.90;;;;;;4920604;29;20035;-81
2022/06/06 08:14:29;;;;;;;16.48;15.45;;;21.30;56.80;;;;;;4951979;28;20043;-81
2022/06/06 08:17:02;;;;;;;16.50;15.60;;;21.30;56.40;;;;;;4971298;28;20397;-81
2022/06/06 08:19:50;;;;;;;17.30;16.10;;;21.40;56.40;;;;;;4952688;28;20508;-81
2022/06/06 08:22:17;;;;;;;17.00;16.10;;;21.50;55.60;;;;;;4957097;28;20043;-81
2022/06/06 08:24:47;;;;;;;17.65;16.48;;;21.60;55.70;;;;;;4959601;28;20138;-81
2022/06/06 08:27:15;;;;;;;17.77;16.77;;;21.70;54.90;;;;;;4979822;28;20045;-81
2022/06/06 08:29:42;;;;;;;18.08;17.05;;;21.70;54.60;;;;;;5024039;28;20484;-81
2022/06/06 08:32:10;;;;;;;18.63;17.42;;;21.70;55.20;;;;;;5007232;28;20041;-81
2022/06/06 08:34:37;;;;;;;17.10;16.20;;;21.70;55.00;;;;;;5011978;28;20048;-81
2022/06/06 08:37:28;;;;;;;20.75;19.52;;;21.70;54.30;;;;;;5029916;28;20025;-81
2022/06/06 08:40:24;;;;;;;20.92;19.80;;;21.80;54.40;;;;;;5028790;28;20041;-81
2022/06/06 08:43:03;;;;;;;17.77;16.77;;;21.80;54.10;;;;;;4971544;28;20034;-81
2022/06/06 08:45:52;;;;;;;18.02;17.02;;;22.00;53.70;;;;;;4972912;28;20537;-81
2022/06/06 08:48:38;;;;;;;19.30;18.20;;;21.90;53.40;;;;;;4983054;28;20050;-81
2022/06/06 08:51:37;;;;;;;16.45;15.55;;;21.90;53.50;;;;;;4989554;28;20053;-81
2022/06/06 08:54:21;;;;;;;18.00;17.00;;;21.90;54.20;;;;;;4931849;29;20048;-81
2022/06/06 08:57:38;;;;;;;17.17;16.15;;;21.90;53.80;;;;;;4932370;29;20071;-81
2022/06/06 09:00:12;;;;;;;17.73;16.58;;;22.10;53.60;;;;;;4859622;29;20487;-81
2022/06/06 09:02:57;;;;;;;20.00;18.60;;;22.20;53.70;;;;;;4860347;29;20045;-81
2022/06/06 09:05:46;;;;;;;19.17;17.88;;;22.20;52.50;;;;;;4859850;29;20041;-81
2022/06/06 09:09:00;;;;;;;17.83;16.83;;;22.10;52.90;;;;;;4856942;29;20489;-81
2022/06/06 09:11:38;;;;;;;20.52;19.00;;;22.10;53.40;;;;;;4817773;29;20050;-81
2022/06/06 09:14:23;;;;;;;19.30;18.30;;;22.20;52.90;;;;;;4817448;29;20437;-81
2022/06/06 09:17:26;;;;;;;22.33;21.05;;;22.20;52.80;;;;;;4817301;29;20049;-81
2022/06/06 09:20:30;;;;;;;17.83;16.80;;;22.10;51.80;;;;;;4840145;29;20053;-81
2022/06/06 09:23:18;;;;;;;19.20;18.20;;;22.10;52.70;;;;;;4836658;29;20440;-81
2022/06/06 09:25:58;;;;;;;21.42;20.08;;;22.20;52.50;;;;;;4835827;29;20485;-81
2022/06/06 09:28:48;;;;;;;20.33;19.23;;;22.30;51.60;;;;;;4835720;29;20739;-81
2022/06/06 09:31:52;;;;;;;20.73;19.63;;;22.20;51.90;;;;;;4845855;29;20046;-81
2022/06/06 09:34:27;;;;;;;20.65;19.60;;;22.30;51.60;;;;;;4905593;29;20048;-80
2022/06/06 09:37:39;;;;;;;23.05;21.67;;;22.30;50.80;;;;;;4931959;29;20039;-81
2022/06/06 09:40:20;;;;;;;20.83;19.63;;;22.40;50.70;;;;;;4919003;29;20512;-81
2022/06/06 09:43:09;;;;;;;20.42;19.42;;;22.60;49.60;;;;;;4916477;29;20402;-82
2022/06/06 09:45:44;;;;;;;20.02;19.02;;;22.70;48.80;;;;;;4932040;28;20043;-81
2022/06/06 09:48:49;;;;;;;19.92;18.83;;;22.80;49.00;;;;;;4935423;28;20046;-81
2022/06/06 09:51:33;;;;;;;19.80;18.65;;;22.80;48.90;;;;;;4950927;28;20065;-82
2022/06/06 10:01:12;;;;;;;19.60;18.60;;;23.20;48.70;;;;;;4948750;28;20046;-83
2022/06/06 10:04:16;;;;;;;20.17;19.02;;;23.30;47.50;;;;;;4972809;28;20409;-82
2022/06/06 10:07:06;;;;;;;17.80;16.70;;;23.20;46.40;;;;;;4993991;28;20418;-83
2022/06/06 10:09:50;;;;;;;17.70;16.80;;;23.20;47.40;;;;;;4992706;28;20050;-83
2022/06/06 10:12:32;;;;;;;18.13;17.23;;;23.10;48.40;;;;;;4962886;28;20035;-83
2022/06/06 10:15:16;;;;;;;17.48;16.58;;;23.20;47.90;;;;;;4975502;28;20046;-83
2022/06/06 10:18:05;;;;;;;19.02;17.63;;;23.10;47.10;;;;;;4972427;28;20042;-83
2022/06/06 10:21:07;;;;;;;17.13;16.10;;;22.90;46.60;;;;;;4934682;29;20058;-82
2022/06/06 10:23:41;;;;;;;17.27;16.27;;;22.90;47.50;;;;;;4919315;29;20139;-83
2022/06/06 10:26:14;;;;;;;17.65;16.52;;;22.90;46.40;;;;;;4937627;29;20104;-82
2022/06/06 10:29:02;;;;;;;18.05;17.00;;;22.80;46.70;;;;;;4913634;29;20043;-82
2022/06/06 10:31:50;;;;;;;17.45;16.35;;;22.80;46.30;;;;;;4917302;29;20043;-82
2022/06/06 10:34:44;;;;;;;16.73;15.93;;;22.80;46.10;;;;;;4941185;28;20057;-82
2022/06/06 10:37:25;;;;;;;17.25;16.05;;;22.80;46.40;;;;;;4987958;28;20038;-82
2022/06/06 10:40:29;;;;;;;18.35;17.45;;;22.80;46.70;;;;;;4988771;28;20035;-82
2022/06/06 10:43:20;;;;;;;17.27;16.02;;;22.80;44.90;;;;;;4915220;29;20086;-82
2022/06/06 10:45:48;;;;;;;16.50;15.70;;;22.90;45.90;;;;;;4911557;29;20149;-83
2022/06/06 10:48:21;;;;;;;18.02;17.13;;;22.90;45.80;;;;;;4914484;29;20047;-82
2022/06/06 10:54:15;;;;;;;17.92;16.70;;;23.00;47.20;;;;;;4913782;29;20051;-82
2022/06/06 10:57:02;;;;;;;19.13;18.13;;;23.00;47.60;;;;;;4901595;28;20032;-82
2022/06/06 11:00:03;;;;;;;18.33;17.23;;;23.00;47.50;;;;;;4977098;28;20042;-82
2022/06/06 11:02:35;;;;;;;19.42;18.33;;;23.00;47.30;;;;;;4976009;28;20038;-83
2022/06/06 11:05:22;;;;;;;17.48;16.50;;;23.00;47.50;;;;;;4960610;28;20416;-82
2022/06/06 11:08:05;;;;;;;17.55;16.65;;;22.90;47.80;;;;;;4976986;28;20436;-82
2022/06/06 11:11:03;;;;;;;17.60;16.70;;;22.90;48.00;;;;;;4960132;28;20034;-82
2022/06/06 11:13:51;;;;;;;17.33;16.42;;;22.80;48.10;;;;;;4972817;28;20041;-82
2022/06/06 11:16:36;;;;;;;17.88;16.73;;;22.80;48.40;;;;;;4972113;28;20038;-82
2022/06/06 11:19:43;;;;;;;17.88;16.65;;;22.80;48.30;;;;;;4991888;28;20033;-82
2022/06/06 11:22:12;;;;;;;17.02;16.02;;;22.80;48.20;;;;;;5025936;28;20038;-82
2022/06/06 11:25:05;;;;;;;18.15;16.77;;;22.90;48.40;;;;;;5029994;28;20038;-82
2022/06/06 11:27:53;;;;;;;17.63;16.70;;;22.90;48.40;;;;;;5009380;28;20034;-82
2022/06/06 11:30:52;;;;;;;18.55;17.35;;;22.90;48.50;;;;;;5024048;28;20046;-82
2022/06/06 11:33:28;;;;;;;18.30;17.30;;;22.90;48.90;;;;;;5026897;28;20072;-82
2022/06/06 11:36:09;;;;;;;18.52;17.52;;;23.00;48.40;;;;;;5024910;28;20479;-82
2022/06/06 11:39:13;;;;;;;18.92;17.73;;;23.00;48.00;;;;;;5025508;28;20037;-83
2022/06/06 11:41:51;;;;;;;18.10;16.90;;;22.90;48.10;;;;;;5026743;28;20376;-82
2022/06/06 11:44:38;;;;;;;16.20;15.20;;;22.90;48.30;;;;;;5026502;28;20040;-82
2022/06/06 11:47:24;;;;;;;17.75;16.63;;;22.80;48.80;;;;;;5027354;28;20022;-82
2022/06/06 11:49:50;;;;;;;16.85;15.88;;;23.10;49.10;;;;;;5026621;28;20017;-82
2022/06/06 11:52:16;;;;;;;18.23;17.02;;;23.20;49.70;;;;;;5026204;28;20037;-82
2022/06/06 11:54:48;;;;;;;19.45;18.35;;;23.30;48.80;;;;;;5028251;28;20048;-82
2022/06/06 11:57:33;;;;;;;19.23;18.02;;;23.40;48.40;;;;;;5034145;28;20065;-82
2022/06/06 12:00:21;;;;;;;18.67;17.73;;;23.40;48.40;;;;;;5027918;28;20056;-83
2022/06/06 12:03:11;;;;;;;18.23;17.23;;;23.40;48.60;;;;;;5030343;28;20037;-82
2022/06/06 12:06:01;;;;;;;17.98;17.05;;;23.40;48.80;;;;;;5031019;28;20037;-82
2022/06/06 12:09:11;;;;;;;19.45;18.30;;;23.60;48.80;;;;;;5029907;28;20033;-83
2022/06/06 12:12:01;;;;;;;18.00;17.13;;;23.80;48.60;;;;;;5007776;28;20053;-82
2022/06/06 12:14:48;;;;;;;18.27;17.27;;;23.80;49.30;;;;;;5008808;28;20064;-82
2022/06/06 12:17:47;;;;;;;18.10;16.92;;;23.80;49.60;;;;;;5025073;28;20062;-83
2022/06/06 12:20:51;;;;;;;17.52;16.63;;;23.70;50.40;;;;;;5027424;28;20583;-83
2022/06/06 12:23:35;;;;;;;16.77;15.57;;;23.60;50.20;;;;;;5027390;28;20045;-82
2022/06/06 12:26:12;;;;;;;16.90;15.85;;;23.50;51.30;;;;;;5027399;28;20506;-83
2022/06/06 12:28:50;;;;;;;17.48;16.38;;;23.50;52.20;;;;;;5009525;28;20045;-82
2022/06/06 12:31:47;;;;;;;17.38;16.40;;;23.50;51.50;;;;;;5026781;28;20043;-83
2022/06/06 12:34:35;;;;;;;17.50;16.60;;;23.60;51.60;;;;;;5027490;28;20056;-82
2022/06/06 12:37:33;;;;;;;18.35;17.42;;;23.70;51.60;;;;;;5011170;28;20033;-82
2022/06/06 12:40:13;;;;;;;17.70;16.70;;;23.60;51.90;;;;;;5026285;28;20412;-82
2022/06/06 12:42:48;;;;;;;17.90;16.90;;;23.30;53.40;;;;;;5006759;28;20204;-82
2022/06/06 12:45:38;;;;;;;17.70;16.70;;;23.10;53.90;;;;;;5031001;28;20383;-82
2022/06/06 12:48:14;;;;;;;16.08;15.20;;;23.00;54.00;;;;;;5023714;28;20380;-82
2022/06/06 12:50:59;;;;;;;15.27;14.48;;;22.90;53.90;;;;;;5030798;28;20041;-82
2022/06/06 12:54:03;;;;;;;16.35;15.45;;;22.80;53.30;;;;;;5023598;28;20440;-82
2022/06/06 12:56:37;;;;;;;15.38;14.57;;;22.90;53.20;;;;;;5028728;28;20048;-82
2022/06/06 12:59:06;;;;;;;15.75;14.70;;;22.80;53.40;;;;;;5030442;28;20446;-82
2022/06/06 13:01:59;;;;;;;15.95;14.85;;;22.60;53.90;;;;;;5028724;28;20396;-82
2022/06/06 13:04:41;;;;;;;13.93;13.15;;;22.50;54.20;;;;;;5013760;28;20511;-82
2022/06/06 13:07:31;;;;;;;13.35;12.45;;;22.40;53.90;;;;;;5028501;28;20049;-82
2022/06/06 13:10:19;;;;;;;14.30;13.50;;;22.20;54.70;;;;;;5013037;28;20068;-82
2022/06/06 13:13:05;;;;;;;13.77;12.98;;;22.10;55.00;;;;;;5028369;28;20029;-82
2022/06/06 13:15:35;;;;;;;12.93;11.85;;;22.10;55.20;;;;;;5029171;28;20057;-82
2022/06/06 13:18:44;;;;;;;13.00;11.88;;;22.10;55.50;;;;;;5014280;28;20511;-82
2022/06/06 13:21:19;;;;;;;12.02;11.32;;;22.10;55.90;;;;;;5023057;28;20040;-82
2022/06/06 13:24:04;;;;;;;12.20;11.55;;;22.10;56.30;;;;;;5028437;28;20395;-82
2022/06/06 13:26:52;;;;;;;12.38;11.40;;;22.20;56.50;;;;;;5022603;28;20034;-82
2022/06/06 13:29:32;;;;;;;12.82;11.82;;;22.20;56.80;;;;;;5010399;28;20049;-82
2022/06/06 13:32:13;;;;;;;12.13;11.43;;;22.20;56.80;;;;;;5003323;28;20026;-82
2022/06/06 13:34:58;;;;;;;13.02;12.32;;;22.10;56.70;;;;;;5010935;28;20053;-82
2022/06/06 13:37:52;;;;;;;13.38;12.68;;;22.10;56.70;;;;;;5013402;28;20029;-82
2022/06/06 13:40:27;;;;;;;13.15;12.45;;;22.20;56.30;;;;;;5011482;28;20456;-82
2022/06/06 13:43:33;;;;;;;13.50;12.60;;;22.20;56.20;;;;;;5031068;28;20044;-82
2022/06/06 13:46:07;;;;;;;13.55;12.75;;;22.20;56.30;;;;;;5034557;28;20041;-82
2022/06/06 13:49:02;;;;;;;12.60;11.73;;;22.10;56.70;;;;;;5049370;28;20036;-82
2022/06/06 13:51:46;;;;;;;12.27;11.45;;;21.90;59.70;;;;;;5048630;28;20043;-82
2022/06/06 13:54:38;;;;;;;12.10;11.07;;;21.60;61.10;;;;;;5048090;28;20033;-82
2022/06/06 13:57:26;;;;;;;11.88;11.18;;;21.50;63.10;;;;;;5032605;28;20400;-82
2022/06/06 14:00:19;;;;;;;15.63;14.73;;;21.40;64.50;;;;;;5032284;28;20048;-82
2022/06/06 14:03:12;;;;;;;19.15;18.05;;;21.50;65.80;;;;;;5028449;28;20037;-82
2022/06/06 14:05:57;;;;;;;21.63;20.52;;;21.70;64.70;;;;;;5027888;28;20048;-82